createdAt,value
2017-08-25T00:00:27.300Z,12.24
2017-08-25T00:01:27.300Z,12.25
2017-08-25T00:02:27.367Z,12.29
2017-08-25T00:03:27.281Z,12.31
2017-08-25T00:04:27.329Z,12.35
2017-08-25T00:05:27.321Z,12.37
2017-08-25T00:06:27.310Z,12.39
2017-08-25T00:07:27.279Z,12.42
2017-08-25T00:08:27.296Z,12.40
2017-08-25T00:09:27.301Z,12.37
2017-08-25T00:10:27.328Z,12.35
2017-08-25T00:11:27.353Z,12.32
2017-08-25T00:12:27.346Z,12.32
2017-08-25T00:13:27.327Z,12.29
2017-08-25T00:14:27.329Z,12.28
2017-08-25T00:15:27.287Z,12.26
2017-08-25T00:16:27.287Z,12.25
2017-08-25T00:17:27.315Z,12.22
2017-08-25T00:18:27.309Z,12.24
2017-08-25T00:19:27.314Z,12.25
2017-08-25T00:20:27.357Z,12.28
2017-08-25T00:21:27.289Z,12.26
2017-08-25T00:22:27.332Z,12.25
2017-08-25T00:23:27.308Z,12.24
2017-08-25T00:24:27.286Z,12.21
2017-08-25T00:25:27.335Z,12.18
2017-08-25T00:26:27.381Z,12.22
2017-08-25T00:27:27.366Z,12.24
2017-08-25T00:28:27.370Z,12.22
2017-08-25T00:29:27.369Z,12.18
2017-08-25T00:30:27.319Z,12.14
2017-08-25T00:31:27.371Z,12.10
2017-08-25T00:32:27.324Z,12.05
2017-08-25T00:33:27.354Z,12.02
2017-08-25T00:34:27.414Z,11.99
2017-08-25T00:35:27.353Z,11.97
2017-08-25T00:36:27.420Z,11.92
2017-08-25T00:37:27.348Z,11.91
2017-08-25T00:38:27.355Z,11.95
2017-08-25T00:39:27.351Z,12.02
2017-08-25T00:40:27.385Z,12.02
2017-08-25T00:41:27.393Z,12.01
2017-08-25T00:42:27.320Z,12.01
2017-08-25T00:43:27.350Z,11.97
2017-08-25T00:44:27.424Z,11.98
2017-08-25T00:45:27.385Z,11.97
2017-08-25T00:46:27.323Z,11.94
2017-08-25T00:47:27.319Z,11.94
2017-08-25T00:48:27.261Z,11.92
2017-08-25T00:49:27.327Z,11.86
2017-08-25T00:50:27.344Z,11.84
2017-08-25T00:51:27.345Z,11.83
2017-08-25T00:52:27.310Z,11.86
2017-08-25T00:53:27.308Z,11.94
2017-08-25T00:54:27.317Z,12.06
2017-08-25T00:55:27.343Z,12.14
2017-08-25T00:56:27.346Z,12.18
2017-08-25T00:57:27.386Z,12.20
2017-08-25T00:58:27.428Z,12.22
2017-08-25T00:59:27.405Z,12.25
2017-08-25T01:00:27.356Z,12.25
2017-08-25T01:01:27.436Z,12.22
2017-08-25T01:02:27.397Z,12.20
2017-08-25T01:03:27.429Z,12.16
2017-08-25T01:04:27.344Z,12.13
2017-08-25T01:05:27.431Z,12.10
2017-08-25T01:06:27.393Z,12.08
2017-08-25T01:07:27.350Z,12.03
2017-08-25T01:08:27.319Z,12.01
2017-08-25T01:09:27.316Z,12.05
2017-08-25T01:10:27.363Z,12.08
2017-08-25T01:11:27.338Z,12.05
2017-08-25T01:12:27.291Z,12.02
2017-08-25T01:13:27.341Z,11.99
2017-08-25T01:14:27.371Z,11.94
2017-08-25T01:15:27.367Z,11.87
2017-08-25T01:16:27.358Z,11.82
2017-08-25T01:17:27.370Z,11.78
2017-08-25T01:18:27.409Z,11.76
2017-08-25T01:19:27.442Z,11.72
2017-08-25T01:20:27.379Z,11.67
2017-08-25T01:21:27.402Z,11.64
2017-08-25T01:22:27.375Z,11.64
2017-08-25T01:23:27.422Z,11.67
2017-08-25T01:24:27.378Z,11.69
2017-08-25T01:25:27.375Z,11.64
2017-08-25T01:26:27.407Z,11.61
2017-08-25T01:27:27.382Z,11.58
2017-08-25T01:28:27.352Z,11.58
2017-08-25T01:29:27.388Z,11.57
2017-08-25T01:30:27.365Z,11.57
2017-08-25T01:31:27.406Z,11.56
2017-08-25T01:32:27.428Z,11.60
2017-08-25T01:33:27.386Z,11.68
2017-08-25T01:34:27.383Z,11.76
2017-08-25T01:35:27.444Z,11.84
2017-08-25T01:36:27.427Z,11.87
2017-08-25T01:37:27.385Z,11.86
2017-08-25T01:38:27.412Z,11.86
2017-08-25T01:39:27.349Z,11.86
2017-08-25T01:40:27.380Z,11.89
2017-08-25T01:41:27.418Z,11.92
2017-08-25T01:42:27.384Z,11.94
2017-08-25T01:43:27.390Z,11.97
2017-08-25T01:44:27.417Z,11.97
2017-08-25T01:45:27.390Z,11.97
2017-08-25T01:46:27.418Z,11.98
2017-08-25T01:47:27.465Z,11.98
2017-08-25T01:48:27.398Z,11.99
2017-08-25T01:49:27.510Z,11.95
2017-08-25T01:50:27.392Z,11.94
2017-08-25T01:51:27.432Z,11.92
2017-08-25T01:52:27.458Z,11.89
2017-08-25T01:53:27.388Z,11.86
2017-08-25T01:54:27.438Z,11.84
2017-08-25T01:55:27.441Z,11.83
2017-08-25T01:56:27.461Z,11.80
2017-08-25T01:57:27.406Z,11.78
2017-08-25T01:58:27.461Z,11.75
2017-08-25T01:59:27.462Z,11.75
2017-08-25T02:00:27.462Z,11.75
2017-08-25T02:01:27.397Z,11.72
2017-08-25T02:02:27.445Z,11.69
2017-08-25T02:03:27.369Z,11.67
2017-08-25T02:04:27.473Z,11.67
2017-08-25T02:05:27.448Z,11.69
2017-08-25T02:06:27.393Z,11.68
2017-08-25T02:07:27.426Z,11.69
2017-08-25T02:08:27.426Z,11.71
2017-08-25T02:09:27.368Z,11.72
2017-08-25T02:10:27.397Z,11.71
2017-08-25T02:11:27.432Z,11.68
2017-08-25T02:12:27.400Z,11.67
2017-08-25T02:13:27.434Z,11.64
2017-08-25T02:14:27.431Z,11.62
2017-08-25T02:15:27.403Z,11.61
2017-08-25T02:16:27.402Z,11.58
2017-08-25T02:17:27.408Z,11.56
2017-08-25T02:18:27.442Z,11.53
2017-08-25T02:19:27.471Z,11.51
2017-08-25T02:20:27.475Z,11.51
2017-08-25T02:21:27.435Z,11.50
2017-08-25T02:22:27.382Z,11.50
2017-08-25T02:23:27.417Z,11.49
2017-08-25T02:24:27.438Z,11.47
2017-08-25T02:25:27.484Z,11.47
2017-08-25T02:26:27.438Z,11.47
2017-08-25T02:27:27.397Z,11.42
2017-08-25T02:28:27.385Z,11.40
2017-08-25T02:29:27.422Z,11.38
2017-08-25T02:30:27.388Z,11.36
2017-08-25T02:31:27.478Z,11.35
2017-08-25T02:32:27.489Z,11.33
2017-08-25T02:33:27.421Z,11.32
2017-08-25T02:34:27.418Z,11.32
2017-08-25T02:35:27.459Z,11.32
2017-08-25T02:36:27.463Z,11.32
2017-08-25T02:37:27.527Z,11.33
2017-08-25T02:38:27.461Z,11.38
2017-08-25T02:39:27.430Z,11.42
2017-08-25T02:40:27.419Z,11.46
2017-08-25T02:41:27.424Z,11.47
2017-08-25T02:42:27.465Z,11.49
2017-08-25T02:43:27.497Z,11.56
2017-08-25T02:44:27.449Z,11.64
2017-08-25T02:45:27.488Z,11.71
2017-08-25T02:46:27.417Z,11.79
2017-08-25T02:47:27.405Z,11.86
2017-08-25T02:48:27.491Z,11.91
2017-08-25T02:49:27.408Z,11.97
2017-08-25T02:50:27.401Z,11.97
2017-08-25T02:51:27.491Z,12.02
2017-08-25T02:52:27.436Z,12.08
2017-08-25T02:53:27.460Z,12.13
2017-08-25T02:54:27.426Z,12.21
2017-08-25T02:55:27.490Z,12.28
2017-08-25T02:56:27.432Z,12.28
2017-08-25T02:57:27.472Z,12.29
2017-08-25T02:58:27.408Z,12.32
2017-08-25T02:59:27.530Z,12.32
2017-08-25T03:00:27.405Z,12.33
2017-08-25T03:01:27.426Z,12.35
2017-08-25T03:02:27.496Z,12.36
2017-08-25T03:03:27.464Z,12.37
2017-08-25T03:04:27.502Z,12.37
2017-08-25T03:05:27.446Z,12.35
2017-08-25T03:06:27.460Z,12.35
2017-08-25T03:07:27.439Z,12.32
2017-08-25T03:08:27.473Z,12.32
2017-08-25T03:09:27.461Z,12.32
2017-08-25T03:10:27.508Z,12.35
2017-08-25T03:11:27.498Z,12.33
2017-08-25T03:12:27.416Z,12.33
2017-08-25T03:13:27.415Z,12.33
2017-08-25T03:14:27.485Z,12.33
2017-08-25T03:15:27.508Z,12.36
2017-08-25T03:16:27.483Z,12.36
2017-08-25T03:17:27.433Z,12.33
2017-08-25T03:18:27.436Z,12.32
2017-08-25T03:19:27.437Z,12.28
2017-08-25T03:20:27.437Z,12.26
2017-08-25T03:21:27.471Z,12.28
2017-08-25T03:22:27.492Z,12.28
2017-08-25T03:23:27.438Z,12.26
2017-08-25T03:24:27.414Z,12.28
2017-08-25T03:25:27.413Z,12.22
2017-08-25T03:26:27.473Z,12.21
2017-08-25T03:27:27.496Z,12.24
2017-08-25T03:28:27.529Z,12.24
2017-08-25T03:29:27.479Z,12.22
2017-08-25T03:30:27.485Z,12.21
2017-08-25T03:31:27.484Z,12.20
2017-08-25T03:32:27.461Z,12.24
2017-08-25T03:33:27.434Z,12.28
2017-08-25T03:34:27.459Z,12.32
2017-08-25T03:35:27.481Z,12.36
2017-08-25T03:36:27.538Z,12.37
2017-08-25T03:37:27.422Z,12.36
2017-08-25T03:38:27.451Z,12.33
2017-08-25T03:39:27.483Z,12.31
2017-08-25T03:40:27.450Z,12.29
2017-08-25T03:41:27.451Z,12.29
2017-08-25T03:42:27.424Z,12.28
2017-08-25T03:43:27.426Z,12.24
2017-08-25T03:44:27.427Z,12.21
2017-08-25T03:45:27.455Z,12.14
2017-08-25T03:46:27.428Z,12.14
2017-08-25T03:47:27.488Z,12.10
2017-08-25T03:48:27.459Z,12.08
2017-08-25T03:49:27.490Z,12.06
2017-08-25T03:50:27.504Z,12.05
2017-08-25T03:51:27.561Z,12.05
2017-08-25T03:52:27.442Z,12.03
2017-08-25T03:53:27.464Z,11.98
2017-08-25T03:54:27.442Z,11.98
2017-08-25T03:55:27.448Z,12.01
2017-08-25T03:56:27.474Z,12.03
2017-08-25T03:57:27.435Z,12.02
2017-08-25T03:58:27.465Z,11.99
2017-08-25T03:59:27.498Z,11.97
2017-08-25T04:00:27.500Z,11.95
2017-08-25T04:01:27.465Z,11.92
2017-08-25T04:02:27.464Z,11.91
2017-08-25T04:03:27.505Z,11.86
2017-08-25T04:04:27.505Z,11.89
2017-08-25T04:05:27.439Z,11.89
2017-08-25T04:06:27.504Z,11.87
2017-08-25T04:07:27.442Z,11.83
2017-08-25T04:08:27.470Z,11.86
2017-08-25T04:09:27.529Z,11.94
2017-08-25T04:10:27.536Z,11.98
2017-08-25T04:11:27.472Z,12.01
2017-08-25T04:12:27.501Z,11.99
2017-08-25T04:13:27.450Z,12.02
2017-08-25T04:14:27.474Z,12.05
2017-08-25T04:15:27.475Z,12.05
2017-08-25T04:16:27.545Z,12.03
2017-08-25T04:17:27.501Z,12.02
2017-08-25T04:18:27.464Z,12.05
2017-08-25T04:19:27.472Z,12.05
2017-08-25T04:20:27.466Z,12.03
2017-08-25T04:21:27.450Z,12.03
2017-08-25T04:22:27.439Z,12.01
2017-08-25T04:23:27.451Z,11.99
2017-08-25T04:24:27.449Z,12.01
2017-08-25T04:25:27.454Z,12.01
2017-08-25T04:26:27.427Z,11.97
2017-08-25T04:27:27.395Z,11.94
2017-08-25T04:28:27.511Z,11.92
2017-08-25T04:29:27.439Z,11.91
2017-08-25T04:30:27.453Z,11.86
2017-08-25T04:31:27.453Z,11.86
2017-08-25T04:32:27.439Z,11.86
2017-08-25T04:33:27.462Z,11.86
2017-08-25T04:34:27.477Z,11.89
2017-08-25T04:35:27.511Z,11.89
2017-08-25T04:36:27.470Z,11.87
2017-08-25T04:37:27.471Z,11.83
2017-08-25T04:38:27.485Z,11.80
2017-08-25T04:39:27.469Z,11.78
2017-08-25T04:40:27.525Z,11.80
2017-08-25T04:41:27.442Z,11.83
2017-08-25T04:42:27.480Z,11.84
2017-08-25T04:43:27.481Z,11.83
2017-08-25T04:44:27.492Z,11.82
2017-08-25T04:45:27.440Z,11.79
2017-08-25T04:46:27.496Z,11.76
2017-08-25T04:47:27.484Z,11.73
2017-08-25T04:48:27.458Z,11.73
2017-08-25T04:49:27.519Z,11.73
2017-08-25T04:50:27.519Z,11.73
2017-08-25T04:51:27.460Z,11.76
2017-08-25T04:52:27.525Z,11.75
2017-08-25T04:53:27.489Z,11.72
2017-08-25T04:54:27.528Z,11.73
2017-08-25T04:55:27.531Z,11.75
2017-08-25T04:56:27.465Z,11.79
2017-08-25T04:57:27.650Z,11.84
2017-08-25T04:58:27.467Z,11.87
2017-08-25T04:59:27.465Z,11.92
2017-08-25T05:00:27.467Z,11.97
2017-08-25T05:01:27.496Z,12.01
2017-08-25T05:02:27.499Z,12.05
2017-08-25T05:03:27.469Z,12.10
2017-08-25T05:04:27.532Z,12.12
2017-08-25T05:05:27.528Z,12.10
2017-08-25T05:06:27.537Z,12.13
2017-08-25T05:07:27.549Z,12.12
2017-08-25T05:08:27.476Z,12.10
2017-08-25T05:09:27.502Z,12.10
2017-08-25T05:10:27.485Z,12.10
2017-08-25T05:11:27.543Z,12.09
2017-08-25T05:12:27.575Z,12.10
2017-08-25T05:13:27.553Z,12.10
2017-08-25T05:14:27.480Z,12.13
2017-08-25T05:15:27.480Z,12.13
2017-08-25T05:16:27.508Z,12.12
2017-08-25T05:17:27.518Z,12.10
2017-08-25T05:18:27.579Z,12.12
2017-08-25T05:19:27.487Z,12.12
2017-08-25T05:20:27.539Z,12.16
2017-08-25T05:21:27.514Z,12.14
2017-08-25T05:22:27.574Z,12.18
2017-08-25T05:23:27.511Z,12.18
2017-08-25T05:24:27.517Z,12.21
2017-08-25T05:25:27.578Z,12.22
2017-08-25T05:26:27.497Z,12.25
2017-08-25T05:27:27.489Z,12.28
2017-08-25T05:28:27.511Z,12.29
2017-08-25T05:29:27.586Z,12.31
2017-08-25T05:30:27.494Z,12.33
2017-08-25T05:31:27.490Z,12.35
2017-08-25T05:32:27.586Z,12.36
2017-08-25T05:33:27.503Z,12.37
2017-08-25T05:34:27.521Z,12.39
2017-08-25T05:35:27.561Z,12.40
2017-08-25T05:36:27.558Z,12.42
2017-08-25T05:37:27.525Z,12.43
2017-08-25T05:38:27.517Z,12.43
2017-08-25T05:39:27.558Z,12.46
2017-08-25T05:40:27.521Z,12.47
2017-08-25T05:41:27.517Z,12.48
2017-08-25T05:42:27.553Z,12.50
2017-08-25T05:43:27.521Z,12.51
2017-08-25T05:44:27.550Z,12.50
2017-08-25T05:45:27.522Z,12.51
2017-08-25T05:46:27.558Z,12.53
2017-08-25T05:47:27.553Z,12.53
2017-08-25T05:48:27.554Z,12.55
2017-08-25T05:49:27.492Z,12.58
2017-08-25T05:50:27.523Z,12.61
2017-08-25T05:51:27.559Z,12.64
2017-08-25T05:52:27.497Z,12.65
2017-08-25T05:53:27.502Z,12.69
2017-08-25T05:54:27.559Z,12.73
2017-08-25T05:55:27.526Z,12.75
2017-08-25T05:56:27.498Z,12.82
2017-08-25T05:57:27.532Z,12.89
2017-08-25T05:58:27.501Z,12.96
2017-08-25T05:59:27.561Z,13.05
2017-08-25T06:00:27.565Z,13.10
2017-08-25T06:01:27.564Z,13.18
2017-08-25T06:02:27.562Z,13.28
2017-08-25T06:03:27.503Z,13.35
2017-08-25T06:04:27.534Z,13.35
2017-08-25T06:05:27.567Z,13.38
2017-08-25T06:06:27.590Z,13.42
2017-08-25T06:07:27.567Z,13.51
2017-08-25T06:08:27.539Z,13.59
2017-08-25T06:09:27.492Z,13.69
2017-08-25T06:10:27.538Z,13.70
2017-08-25T06:11:27.468Z,13.68
2017-08-25T06:12:27.533Z,13.70
2017-08-25T06:13:27.514Z,13.76
2017-08-25T06:14:27.658Z,13.81
2017-08-25T06:15:27.515Z,13.80
2017-08-25T06:16:27.586Z,13.91
2017-08-25T06:17:27.497Z,13.88
2017-08-25T06:18:27.549Z,13.91
2017-08-25T06:19:27.536Z,13.98
2017-08-25T06:20:27.523Z,14.10
2017-08-25T06:21:27.516Z,14.24
2017-08-25T06:22:27.492Z,14.33
2017-08-25T06:23:27.476Z,14.46
2017-08-25T06:24:27.541Z,14.53
2017-08-25T06:25:27.550Z,14.51
2017-08-25T06:26:27.552Z,14.53
2017-08-25T06:27:27.551Z,14.53
2017-08-25T06:28:27.527Z,14.60
2017-08-25T06:29:27.591Z,14.68
2017-08-25T06:30:27.529Z,14.82
2017-08-25T06:31:27.589Z,14.95
2017-08-25T06:32:27.602Z,14.94
2017-08-25T06:33:27.621Z,14.94
2017-08-25T06:34:27.605Z,14.96
2017-08-25T06:35:27.567Z,14.95
2017-08-25T06:36:27.672Z,14.96
2017-08-25T06:37:27.617Z,15.02
2017-08-25T06:38:27.594Z,15.15
2017-08-25T06:39:27.604Z,15.25
2017-08-25T06:40:27.607Z,15.32
2017-08-25T06:41:27.610Z,15.25
2017-08-25T06:42:27.628Z,15.10
2017-08-25T06:43:27.627Z,15.13
2017-08-25T06:44:27.635Z,15.32
2017-08-25T06:45:27.568Z,15.48
2017-08-25T06:46:27.544Z,15.55
2017-08-25T06:47:27.577Z,15.66
2017-08-25T06:48:27.534Z,15.77
2017-08-25T06:49:27.536Z,15.86
2017-08-25T06:50:27.562Z,15.86
2017-08-25T06:51:27.568Z,15.87
2017-08-25T06:52:27.601Z,15.87
2017-08-25T06:53:27.534Z,15.95
2017-08-25T06:54:27.585Z,16.07
2017-08-25T06:55:27.537Z,16.17
2017-08-25T06:56:27.601Z,16.18
2017-08-25T06:57:27.587Z,16.33
2017-08-25T06:58:27.648Z,16.41
2017-08-25T06:59:27.573Z,16.52
2017-08-25T07:00:27.640Z,16.55
2017-08-25T07:01:27.543Z,16.38
2017-08-25T07:02:27.554Z,16.28
2017-08-25T07:03:27.642Z,16.22
2017-08-25T07:04:27.622Z,16.27
2017-08-25T07:05:27.642Z,16.22
2017-08-25T07:06:27.586Z,16.20
2017-08-25T07:07:27.643Z,16.16
2017-08-25T07:08:27.555Z,16.13
2017-08-25T07:09:27.572Z,16.17
2017-08-25T07:10:27.555Z,16.18
2017-08-25T07:11:27.573Z,16.25
2017-08-25T07:12:27.529Z,16.32
2017-08-25T07:13:27.618Z,16.33
2017-08-25T07:14:27.557Z,16.43
2017-08-25T07:15:27.548Z,16.43
2017-08-25T07:16:27.552Z,16.50
2017-08-25T07:17:27.561Z,16.54
2017-08-25T07:18:27.547Z,16.61
2017-08-25T07:19:27.611Z,16.52
2017-08-25T07:20:27.550Z,16.48
2017-08-25T07:21:27.560Z,16.57
2017-08-25T07:22:27.625Z,16.50
2017-08-25T07:23:27.646Z,16.62
2017-08-25T07:24:27.635Z,16.69
2017-08-25T07:26:27.584Z,16.97
2017-08-25T07:27:27.556Z,17.02
2017-08-25T07:28:27.623Z,17.13
2017-08-25T07:29:27.583Z,17.25
2017-08-25T07:30:27.625Z,17.36
2017-08-25T07:31:27.586Z,17.40
2017-08-25T07:32:27.672Z,17.36
2017-08-25T07:33:27.572Z,17.43
2017-08-25T07:34:27.622Z,17.32
2017-08-25T07:35:27.619Z,17.21
2017-08-25T07:36:27.632Z,17.18
2017-08-25T07:37:27.591Z,17.16
2017-08-25T07:38:27.604Z,17.20
2017-08-25T07:39:27.595Z,17.32
2017-08-25T07:40:27.603Z,17.44
2017-08-25T07:41:27.609Z,17.61
2017-08-25T07:42:27.569Z,17.79
2017-08-25T07:43:27.610Z,17.84
2017-08-25T07:44:27.666Z,18.02
2017-08-25T07:45:27.612Z,18.12
2017-08-25T07:46:27.702Z,18.24
2017-08-25T07:47:27.569Z,18.44
2017-08-25T07:48:27.571Z,18.54
2017-08-25T07:49:27.572Z,18.58
2017-08-25T07:50:27.666Z,18.65
2017-08-25T07:51:27.614Z,18.65
2017-08-25T07:52:27.613Z,18.77
2017-08-25T07:53:27.635Z,18.87
2017-08-25T07:54:27.633Z,18.99
2017-08-25T07:55:27.647Z,19.10
2017-08-25T07:56:27.674Z,19.15
2017-08-25T07:57:27.645Z,19.19
2017-08-25T07:58:27.599Z,19.06
2017-08-25T07:59:27.644Z,18.90
2017-08-25T08:00:27.577Z,18.84
2017-08-25T08:01:27.596Z,18.91
2017-08-25T08:02:27.589Z,19.05
2017-08-25T08:03:27.585Z,19.31
2017-08-25T08:04:27.581Z,19.61
2017-08-25T08:05:27.616Z,19.90
2017-08-25T08:06:27.612Z,20.10
2017-08-25T08:07:27.579Z,20.30
2017-08-25T08:08:27.644Z,20.03
2017-08-25T08:09:27.579Z,19.91
2017-08-25T08:10:27.609Z,19.87
2017-08-25T08:11:27.609Z,19.92
2017-08-25T08:12:27.608Z,20.02
2017-08-25T08:13:27.608Z,20.16
2017-08-25T08:14:27.585Z,20.17
2017-08-25T08:15:27.584Z,20.02
2017-08-25T08:16:27.648Z,19.81
2017-08-25T08:17:27.644Z,19.64
2017-08-25T08:18:27.614Z,19.47
2017-08-25T08:19:27.590Z,19.53
2017-08-25T08:20:27.557Z,19.65
2017-08-25T08:21:27.602Z,19.81
2017-08-25T08:22:27.661Z,20.06
2017-08-25T08:23:27.601Z,20.18
2017-08-25T08:24:27.661Z,20.36
2017-08-25T08:26:27.619Z,20.80
2017-08-25T08:27:27.570Z,20.87
2017-08-25T08:28:27.621Z,20.98
2017-08-25T08:29:27.623Z,21.04
2017-08-25T08:30:27.653Z,21.09
2017-08-25T08:31:27.702Z,21.16
2017-08-25T08:32:27.625Z,21.29
2017-08-25T08:33:27.655Z,21.42
2017-08-25T08:34:27.652Z,21.50
2017-08-25T08:35:27.620Z,21.46
2017-08-25T08:36:27.598Z,21.06
2017-08-25T08:37:27.658Z,20.94
2017-08-25T08:38:27.631Z,20.99
2017-08-25T08:39:27.552Z,21.29
2017-08-25T08:40:27.625Z,21.24
2017-08-25T08:41:27.578Z,21.39
2017-08-25T08:42:27.611Z,21.64
2017-08-25T08:43:27.598Z,21.79
2017-08-25T08:44:27.624Z,21.91
2017-08-25T08:45:27.608Z,22.08
2017-08-25T08:46:27.634Z,22.28
2017-08-25T08:47:27.609Z,22.50
2017-08-25T08:48:27.633Z,22.54
2017-08-25T08:49:27.681Z,22.77
2017-08-25T08:50:27.629Z,22.97
2017-08-25T08:51:27.668Z,23.17
2017-08-25T08:52:27.613Z,23.20
2017-08-25T08:53:27.701Z,23.31
2017-08-25T08:54:27.642Z,23.54
2017-08-25T08:55:27.698Z,23.72
2017-08-25T08:56:27.636Z,23.89
2017-08-25T08:57:27.655Z,23.63
2017-08-25T08:58:27.646Z,23.45
2017-08-25T08:59:27.636Z,23.57
2017-08-25T09:00:27.649Z,23.41
2017-08-25T09:01:27.644Z,23.49
2017-08-25T09:02:27.599Z,23.67
2017-08-25T09:03:27.684Z,23.79
2017-08-25T09:04:27.608Z,24.00
2017-08-25T09:05:27.639Z,23.94
2017-08-25T09:06:27.642Z,23.78
2017-08-25T09:07:27.684Z,23.64
2017-08-25T09:08:27.625Z,23.72
2017-08-25T09:09:27.660Z,23.27
2017-08-25T09:11:27.718Z,22.93
2017-08-25T09:12:27.623Z,22.68
2017-08-25T09:13:27.686Z,22.70
2017-08-25T09:14:27.628Z,22.84
2017-08-25T09:15:27.688Z,22.95
2017-08-25T09:16:27.718Z,22.80
2017-08-25T09:17:27.658Z,22.70
2017-08-25T09:18:27.681Z,22.80
2017-08-25T09:19:27.625Z,22.88
2017-08-25T09:20:27.632Z,22.91
2017-08-25T09:21:27.722Z,22.91
2017-08-25T09:22:27.629Z,22.86
2017-08-25T09:23:27.662Z,22.94
2017-08-25T09:24:27.634Z,23.01
2017-08-25T09:25:27.654Z,22.94
2017-08-25T09:26:27.653Z,23.02
2017-08-25T09:27:27.685Z,23.00
2017-08-25T09:28:27.685Z,22.80
2017-08-25T09:29:27.639Z,22.65
2017-08-25T09:30:27.657Z,22.72
2017-08-25T09:31:27.692Z,22.71
2017-08-25T09:32:27.696Z,22.64
2017-08-25T09:33:27.643Z,22.79
2017-08-25T09:34:27.661Z,22.83
2017-08-25T09:35:27.634Z,22.56
2017-08-25T09:36:27.665Z,22.52
2017-08-25T09:37:27.700Z,22.48
2017-08-25T09:38:27.640Z,22.61
2017-08-25T09:39:27.672Z,22.77
2017-08-25T09:40:27.666Z,22.71
2017-08-25T09:41:27.639Z,22.79
2017-08-25T09:42:27.641Z,22.86
2017-08-25T09:43:27.672Z,23.00
2017-08-25T09:44:27.742Z,23.09
2017-08-25T09:45:27.679Z,23.16
2017-08-25T09:46:27.645Z,23.31
2017-08-25T09:47:27.719Z,23.30
2017-08-25T09:48:27.680Z,23.45
2017-08-25T09:49:27.733Z,23.56
2017-08-25T09:50:27.685Z,23.37
2017-08-25T09:51:27.648Z,23.28
2017-08-25T09:52:27.680Z,23.16
2017-08-25T09:53:27.680Z,22.80
2017-08-25T09:54:27.667Z,22.59
2017-08-25T09:55:27.651Z,22.53
2017-08-25T09:56:27.728Z,22.54
2017-08-25T09:57:27.689Z,22.56
2017-08-25T09:58:27.705Z,22.45
2017-08-25T09:59:27.655Z,22.24
2017-08-25T10:00:27.671Z,22.53
2017-08-25T10:01:27.744Z,22.87
2017-08-25T10:02:27.718Z,23.17
2017-08-25T10:03:27.691Z,23.09
2017-08-25T10:04:27.744Z,23.20
2017-08-25T10:05:27.726Z,23.09
2017-08-25T10:06:27.746Z,23.00
2017-08-25T10:07:27.658Z,22.94
2017-08-25T10:08:27.678Z,22.84
2017-08-25T10:09:27.696Z,22.86
2017-08-25T10:10:27.696Z,22.79
2017-08-25T10:11:27.723Z,22.63
2017-08-25T10:12:27.653Z,22.65
2017-08-25T10:13:27.687Z,22.79
2017-08-25T10:14:27.767Z,22.91
2017-08-25T10:15:27.745Z,23.08
2017-08-25T10:16:27.754Z,23.17
2017-08-25T10:17:27.723Z,23.16
2017-08-25T10:18:27.717Z,23.22
2017-08-25T10:19:27.718Z,23.34
2017-08-25T10:20:27.714Z,23.35
2017-08-25T10:21:27.653Z,23.44
2017-08-25T10:22:27.686Z,23.45
2017-08-25T10:23:27.687Z,23.47
2017-08-25T10:24:27.695Z,23.50
2017-08-25T10:25:27.722Z,23.47
2017-08-25T10:26:27.661Z,23.64
2017-08-25T10:27:27.702Z,23.76
2017-08-25T10:28:27.694Z,23.80
2017-08-25T10:29:27.667Z,23.83
2017-08-25T10:30:27.671Z,24.00
2017-08-25T10:31:27.732Z,23.97
2017-08-25T10:32:27.725Z,23.83
2017-08-25T10:33:27.743Z,23.74
2017-08-25T10:34:27.725Z,23.68
2017-08-25T10:35:27.709Z,23.79
2017-08-25T10:36:27.699Z,23.91
2017-08-25T10:37:27.691Z,23.75
2017-08-25T10:38:27.769Z,23.68
2017-08-25T10:39:27.746Z,23.72
2017-08-25T10:40:27.771Z,23.56
2017-08-25T10:41:27.764Z,23.60
2017-08-25T10:42:27.693Z,23.83
2017-08-25T10:43:27.714Z,23.86
2017-08-25T10:44:27.714Z,23.76
2017-08-25T10:45:27.774Z,23.90
2017-08-25T10:46:27.713Z,23.75
2017-08-25T10:47:27.767Z,23.89
2017-08-25T10:48:27.679Z,24.02
2017-08-25T10:49:27.773Z,24.12
2017-08-25T10:50:27.681Z,24.11
2017-08-25T10:51:27.766Z,24.09
2017-08-25T10:52:27.679Z,23.85
2017-08-25T10:53:27.716Z,23.64
2017-08-25T10:54:27.686Z,23.57
2017-08-25T10:55:27.683Z,23.45
2017-08-25T10:56:27.683Z,23.47
2017-08-25T10:57:27.719Z,23.50
2017-08-25T10:58:27.771Z,23.75
2017-08-25T10:59:27.705Z,23.78
2017-08-25T11:00:27.663Z,23.65
2017-08-25T11:01:27.681Z,23.75
2017-08-25T11:02:27.672Z,23.49
2017-08-25T11:03:27.745Z,23.27
2017-08-25T11:04:27.710Z,23.26
2017-08-25T11:05:27.680Z,23.39
2017-08-25T11:06:27.643Z,23.49
2017-08-25T11:07:27.695Z,23.51
2017-08-25T11:08:27.640Z,23.72
2017-08-25T11:09:27.762Z,23.75
2017-08-25T11:10:27.727Z,23.80
2017-08-25T11:11:27.762Z,23.83
2017-08-25T11:12:27.727Z,24.07
2017-08-25T11:13:27.693Z,24.20
2017-08-25T11:14:27.728Z,24.23
2017-08-25T11:15:27.769Z,24.18
2017-08-25T11:16:27.783Z,23.85
2017-08-25T11:17:27.761Z,23.83
2017-08-25T11:18:27.740Z,23.91
2017-08-25T11:19:27.729Z,23.75
2017-08-25T11:20:27.722Z,23.69
2017-08-25T11:21:27.695Z,23.82
2017-08-25T11:22:27.762Z,23.94
2017-08-25T11:23:27.721Z,24.12
2017-08-25T11:24:27.651Z,24.37
2017-08-25T11:25:27.724Z,24.42
2017-08-25T11:26:27.672Z,24.14
2017-08-25T11:27:27.725Z,24.18
2017-08-25T11:28:27.768Z,24.37
2017-08-25T11:29:27.800Z,24.51
2017-08-25T11:30:27.731Z,24.72
2017-08-25T11:31:27.775Z,24.94
2017-08-25T11:32:27.792Z,24.97
2017-08-25T11:33:27.705Z,24.74
2017-08-25T11:34:27.778Z,24.75
2017-08-25T11:35:27.762Z,24.86
2017-08-25T11:36:27.793Z,25.12
2017-08-25T11:37:27.705Z,25.13
2017-08-25T11:38:27.711Z,25.04
2017-08-25T11:39:27.763Z,25.06
2017-08-25T11:40:27.735Z,25.38
2017-08-25T11:41:27.770Z,25.08
2017-08-25T11:42:27.729Z,25.04
2017-08-25T11:43:27.764Z,25.16
2017-08-25T11:44:27.764Z,25.19
2017-08-25T11:45:27.767Z,25.00
2017-08-25T11:46:27.705Z,24.91
2017-08-25T11:47:27.707Z,25.04
2017-08-25T11:48:27.705Z,25.22
2017-08-25T11:49:27.650Z,25.27
2017-08-25T11:50:27.702Z,25.48
2017-08-25T11:51:27.696Z,25.62
2017-08-25T11:52:27.693Z,25.77
2017-08-25T11:53:27.696Z,25.80
2017-08-25T11:54:27.732Z,25.56
2017-08-25T11:55:27.715Z,25.35
2017-08-25T11:56:27.729Z,25.24
2017-08-25T11:57:27.732Z,25.24
2017-08-25T11:58:27.714Z,25.12
2017-08-25T11:59:27.794Z,24.78
2017-08-25T12:00:27.711Z,24.47
2017-08-25T12:01:27.710Z,24.48
2017-08-25T12:02:27.743Z,24.53
2017-08-25T12:03:27.758Z,24.63
2017-08-25T12:04:27.743Z,24.85
2017-08-25T12:05:27.747Z,24.86
2017-08-25T12:06:27.745Z,24.90
2017-08-25T12:07:27.714Z,25.02
2017-08-25T12:08:27.781Z,25.31
2017-08-25T12:09:27.786Z,25.49
2017-08-25T12:10:27.744Z,25.85
2017-08-25T12:11:27.743Z,25.82
2017-08-25T12:12:27.697Z,25.73
2017-08-25T12:13:27.743Z,25.40
2017-08-25T12:14:27.750Z,25.46
2017-08-25T12:15:27.707Z,25.59
2017-08-25T12:16:27.799Z,25.60
2017-08-25T12:17:27.684Z,25.68
2017-08-25T12:18:27.703Z,25.68
2017-08-25T12:19:27.817Z,25.91
2017-08-25T12:20:27.762Z,26.15
2017-08-25T12:21:27.761Z,26.32
2017-08-25T12:22:27.826Z,26.32
2017-08-25T12:23:27.807Z,26.24
2017-08-25T12:24:27.765Z,25.82
2017-08-25T12:25:27.737Z,25.74
2017-08-25T12:26:27.750Z,25.37
2017-08-25T12:27:27.743Z,25.26
2017-08-25T12:28:27.797Z,25.46
2017-08-25T12:29:27.808Z,25.62
2017-08-25T12:30:27.813Z,25.63
2017-08-25T12:31:27.777Z,25.63
2017-08-25T12:32:27.809Z,25.73
2017-08-25T12:33:27.768Z,25.67
2017-08-25T12:34:27.815Z,25.46
2017-08-25T12:35:27.802Z,25.55
2017-08-25T12:36:27.768Z,25.48
2017-08-25T12:37:27.839Z,25.59
2017-08-25T12:38:27.743Z,25.77
2017-08-25T12:39:27.839Z,25.78
2017-08-25T12:40:27.817Z,25.96
2017-08-25T12:41:27.803Z,26.06
2017-08-25T12:42:27.745Z,26.30
2017-08-25T12:43:27.836Z,26.47
2017-08-25T12:44:27.838Z,26.19
2017-08-25T12:45:27.780Z,26.48
2017-08-25T12:46:27.755Z,26.45
2017-08-25T12:47:27.781Z,25.95
2017-08-25T12:48:27.802Z,25.63
2017-08-25T12:49:27.840Z,25.56
2017-08-25T12:50:27.809Z,25.64
2017-08-25T12:51:27.752Z,25.84
2017-08-25T12:52:27.821Z,26.06
2017-08-25T12:53:27.759Z,25.96
2017-08-25T12:54:27.793Z,25.85
2017-08-25T12:55:27.844Z,25.74